sensor_id;sensor_type;location;lat;lon;timestamp;temperature;humidity
85706;DHT22;76142;52.376;9.712;2024-02-21T00:00:52;8.00;99.90
85706;DHT22;76142;52.376;9.712;2024-02-21T00:03:18;8.00;99.90
85706;DHT22;76142;52.376;9.712;2024-02-21T00:05:45;8.00;99.90
85706;DHT22;76142;52.376;9.712;2024-02-21T00:08:10;8.00;99.90
85706;DHT22;76142;52.376;9.712;2024-02-21T00:10:36;8.00;99.90
85706;DHT22;76142;52.376;9.712;2024-02-21T00:13:02;8.00;99.90
85706;DHT22;76142;52.376;9.712;2024-02-21T00:15:27;8.00;99.90
85706;DHT22;76142;52.376;9.712;2024-02-21T00:17:53;8.00;99.90
85706;DHT22;76142;52.376;9.712;2024-02-21T00:20:19;8.10;99.90
85706;DHT22;76142;52.376;9.712;2024-02-21T00:22:45;8.00;99.90
85706;DHT22;76142;52.376;9.712;2024-02-21T00:25:11;8.00;99.90
85706;DHT22;76142;52.376;9.712;2024-02-21T00:27:37;8.00;99.90
85706;DHT22;76142;52.376;9.712;2024-02-21T00:30:03;8.10;99.90
85706;DHT22;76142;52.376;9.712;2024-02-21T00:32:28;8.10;99.90
85706;DHT22;76142;52.376;9.712;2024-02-21T00:34:54;8.10;99.90
85706;DHT22;76142;52.376;9.712;2024-02-21T00:37:20;8.10;99.90
85706;DHT22;76142;52.376;9.712;2024-02-21T00:39:45;8.10;99.90
85706;DHT22;76142;52.376;9.712;2024-02-21T00:42:11;8.00;99.90
85706;DHT22;76142;52.376;9.712;2024-02-21T00:44:37;8.10;99.90
85706;DHT22;76142;52.376;9.712;2024-02-21T00:47:02;8.10;99.90
85706;DHT22;76142;52.376;9.712;2024-02-21T00:49:28;8.10;99.90
85706;DHT22;76142;52.376;9.712;2024-02-21T00:51:54;8.20;99.90
85706;DHT22;76142;52.376;9.712;2024-02-21T00:54:19;8.20;99.90
85706;DHT22;76142;52.376;9.712;2024-02-21T00:56:45;8.20;99.90
85706;DHT22;76142;52.376;9.712;2024-02-21T00:59:10;8.30;99.90
85706;DHT22;76142;52.376;9.712;2024-02-21T01:01:36;8.40;99.90
85706;DHT22;76142;52.376;9.712;2024-02-21T01:04:02;8.40;99.90
85706;DHT22;76142;52.376;9.712;2024-02-21T01:06:27;8.40;99.90
85706;DHT22;76142;52.376;9.712;2024-02-21T01:08:53;8.50;99.90
85706;DHT22;76142;52.376;9.712;2024-02-21T01:11:18;8.60;99.90
85706;DHT22;76142;52.376;9.712;2024-02-21T01:13:44;8.60;99.90
85706;DHT22;76142;52.376;9.712;2024-02-21T01:16:10;8.60;99.90
85706;DHT22;76142;52.376;9.712;2024-02-21T01:18:37;8.70;99.90
85706;DHT22;76142;52.376;9.712;2024-02-21T01:21:05;8.70;99.90
85706;DHT22;76142;52.376;9.712;2024-02-21T01:23:33;8.70;99.90
85706;DHT22;76142;52.376;9.712;2024-02-21T01:25:59;8.80;99.90
85706;DHT22;76142;52.376;9.712;2024-02-21T01:28:25;8.80;99.90
85706;DHT22;76142;52.376;9.712;2024-02-21T01:30:51;8.80;99.90
85706;DHT22;76142;52.376;9.712;2024-02-21T01:33:17;8.90;99.90
85706;DHT22;76142;52.376;9.712;2024-02-21T01:35:42;8.80;99.90
85706;DHT22;76142;52.376;9.712;2024-02-21T01:38:08;8.90;99.90
85706;DHT22;76142;52.376;9.712;2024-02-21T01:40:34;8.90;99.90
85706;DHT22;76142;52.376;9.712;2024-02-21T01:42:59;8.90;99.90
85706;DHT22;76142;52.376;9.712;2024-02-21T01:45:25;8.90;99.90
85706;DHT22;76142;52.376;9.712;2024-02-21T01:47:50;8.90;99.90
85706;DHT22;76142;52.376;9.712;2024-02-21T01:50:17;8.90;99.90
85706;DHT22;76142;52.376;9.712;2024-02-21T01:52:46;8.90;99.90
85706;DHT22;76142;52.376;9.712;2024-02-21T01:55:14;8.90;99.90
85706;DHT22;76142;52.376;9.712;2024-02-21T01:57:41;9.00;99.90
85706;DHT22;76142;52.376;9.712;2024-02-21T02:00:09;9.00;99.90
85706;DHT22;76142;52.376;9.712;2024-02-21T02:02:36;8.90;99.90
85706;DHT22;76142;52.376;9.712;2024-02-21T02:05:03;9.00;99.90
85706;DHT22;76142;52.376;9.712;2024-02-21T02:07:29;9.00;99.90
85706;DHT22;76142;52.376;9.712;2024-02-21T02:09:55;9.00;99.90
85706;DHT22;76142;52.376;9.712;2024-02-21T02:12:21;9.00;99.90
85706;DHT22;76142;52.376;9.712;2024-02-21T02:15:00;9.00;99.90
85706;DHT22;76142;52.376;9.712;2024-02-21T02:17:26;9.00;99.90
85706;DHT22;76142;52.376;9.712;2024-02-21T02:19:52;9.00;99.90
85706;DHT22;76142;52.376;9.712;2024-02-21T02:22:22;9.00;99.90
85706;DHT22;76142;52.376;9.712;2024-02-21T02:24:49;9.00;99.90
85706;DHT22;76142;52.376;9.712;2024-02-21T02:27:14;9.10;99.90
85706;DHT22;76142;52.376;9.712;2024-02-21T02:29:40;9.00;99.90
85706;DHT22;76142;52.376;9.712;2024-02-21T02:32:06;9.00;99.90
85706;DHT22;76142;52.376;9.712;2024-02-21T02:34:31;9.00;99.90
85706;DHT22;76142;52.376;9.712;2024-02-21T02:36:57;9.00;99.90
85706;DHT22;76142;52.376;9.712;2024-02-21T02:39:23;9.00;99.90
85706;DHT22;76142;52.376;9.712;2024-02-21T02:41:48;9.00;99.90
85706;DHT22;76142;52.376;9.712;2024-02-21T02:44:14;9.00;99.90
85706;DHT22;76142;52.376;9.712;2024-02-21T02:46:43;9.00;99.90
85706;DHT22;76142;52.376;9.712;2024-02-21T02:49:09;9.10;99.90
85706;DHT22;76142;52.376;9.712;2024-02-21T02:51:34;9.00;99.90
85706;DHT22;76142;52.376;9.712;2024-02-21T02:54:00;9.00;99.90
85706;DHT22;76142;52.376;9.712;2024-02-21T02:56:25;9.10;99.90
85706;DHT22;76142;52.376;9.712;2024-02-21T02:58:51;9.10;99.90
85706;DHT22;76142;52.376;9.712;2024-02-21T03:01:16;9.00;99.90
85706;DHT22;76142;52.376;9.712;2024-02-21T03:03:42;9.10;99.90
85706;DHT22;76142;52.376;9.712;2024-02-21T03:06:08;9.00;99.90
85706;DHT22;76142;52.376;9.712;2024-02-21T03:08:33;9.00;99.90
85706;DHT22;76142;52.376;9.712;2024-02-21T03:10:59;9.00;99.90
85706;DHT22;76142;52.376;9.712;2024-02-21T03:13:25;9.10;99.90
85706;DHT22;76142;52.376;9.712;2024-02-21T03:15:51;9.10;99.90
85706;DHT22;76142;52.376;9.712;2024-02-21T03:18:17;9.10;99.90
85706;DHT22;76142;52.376;9.712;2024-02-21T03:20:42;9.00;99.90
85706;DHT22;76142;52.376;9.712;2024-02-21T03:23:08;9.00;99.90
85706;DHT22;76142;52.376;9.712;2024-02-21T03:25:33;9.00;99.90
85706;DHT22;76142;52.376;9.712;2024-02-21T03:27:59;9.00;99.90
85706;DHT22;76142;52.376;9.712;2024-02-21T03:30:25;9.00;99.90
85706;DHT22;76142;52.376;9.712;2024-02-21T03:32:51;9.00;99.90
85706;DHT22;76142;52.376;9.712;2024-02-21T03:35:16;9.00;99.90
85706;DHT22;76142;52.376;9.712;2024-02-21T03:37:44;9.00;99.90
85706;DHT22;76142;52.376;9.712;2024-02-21T03:40:10;9.00;99.90
85706;DHT22;76142;52.376;9.712;2024-02-21T03:42:36;9.10;99.90
85706;DHT22;76142;52.376;9.712;2024-02-21T03:45:02;9.10;99.90
85706;DHT22;76142;52.376;9.712;2024-02-21T03:47:29;9.10;99.90
85706;DHT22;76142;52.376;9.712;2024-02-21T03:49:54;9.00;99.90
85706;DHT22;76142;52.376;9.712;2024-02-21T03:52:20;9.10;99.90
85706;DHT22;76142;52.376;9.712;2024-02-21T03:54:46;9.10;99.90
85706;DHT22;76142;52.376;9.712;2024-02-21T03:57:11;9.10;99.90
85706;DHT22;76142;52.376;9.712;2024-02-21T03:59:37;9.10;99.90
85706;DHT22;76142;52.376;9.712;2024-02-21T04:02:05;9.10;99.90
85706;DHT22;76142;52.376;9.712;2024-02-21T04:04:36;9.00;99.90
85706;DHT22;76142;52.376;9.712;2024-02-21T04:07:03;9.10;99.90
85706;DHT22;76142;52.376;9.712;2024-02-21T04:09:32;9.10;99.90
85706;DHT22;76142;52.376;9.712;2024-02-21T04:11:59;9.10;99.90
85706;DHT22;76142;52.376;9.712;2024-02-21T04:14:25;9.10;99.90
85706;DHT22;76142;52.376;9.712;2024-02-21T04:16:50;9.10;99.90
85706;DHT22;76142;52.376;9.712;2024-02-21T04:19:16;9.10;99.90
85706;DHT22;76142;52.376;9.712;2024-02-21T04:21:42;9.10;99.90
85706;DHT22;76142;52.376;9.712;2024-02-21T04:24:07;9.10;99.90
85706;DHT22;76142;52.376;9.712;2024-02-21T04:26:33;9.10;99.90
85706;DHT22;76142;52.376;9.712;2024-02-21T04:28:59;9.10;99.90
85706;DHT22;76142;52.376;9.712;2024-02-21T04:31:24;9.10;99.90
85706;DHT22;76142;52.376;9.712;2024-02-21T04:33:50;9.10;99.90
85706;DHT22;76142;52.376;9.712;2024-02-21T04:36:16;9.10;99.90
85706;DHT22;76142;52.376;9.712;2024-02-21T04:38:42;9.10;99.90
85706;DHT22;76142;52.376;9.712;2024-02-21T04:41:07;9.10;99.90
85706;DHT22;76142;52.376;9.712;2024-02-21T04:43:33;9.10;99.90
85706;DHT22;76142;52.376;9.712;2024-02-21T04:45:59;9.10;99.90
85706;DHT22;76142;52.376;9.712;2024-02-21T04:48:25;9.00;99.90
85706;DHT22;76142;52.376;9.712;2024-02-21T04:50:51;9.10;99.90
85706;DHT22;76142;52.376;9.712;2024-02-21T04:53:17;9.00;99.90
85706;DHT22;76142;52.376;9.712;2024-02-21T04:55:42;9.00;99.90
85706;DHT22;76142;52.376;9.712;2024-02-21T04:58:08;9.10;99.90
85706;DHT22;76142;52.376;9.712;2024-02-21T05:00:34;9.00;99.90
85706;DHT22;76142;52.376;9.712;2024-02-21T05:03:00;9.00;99.90
85706;DHT22;76142;52.376;9.712;2024-02-21T05:05:25;9.00;99.90
85706;DHT22;76142;52.376;9.712;2024-02-21T05:07:51;9.00;99.90
85706;DHT22;76142;52.376;9.712;2024-02-21T05:10:17;9.10;99.90
85706;DHT22;76142;52.376;9.712;2024-02-21T05:12:43;9.00;99.90
85706;DHT22;76142;52.376;9.712;2024-02-21T05:15:09;9.00;99.90
85706;DHT22;76142;52.376;9.712;2024-02-21T05:17:35;9.10;99.90
85706;DHT22;76142;52.376;9.712;2024-02-21T05:20:01;9.10;99.90
85706;DHT22;76142;52.376;9.712;2024-02-21T05:22:26;9.00;99.90
85706;DHT22;76142;52.376;9.712;2024-02-21T05:24:52;9.00;99.90
85706;DHT22;76142;52.376;9.712;2024-02-21T05:27:18;9.00;99.90
85706;DHT22;76142;52.376;9.712;2024-02-21T05:29:43;9.00;99.90
85706;DHT22;76142;52.376;9.712;2024-02-21T05:32:09;9.00;99.90
85706;DHT22;76142;52.376;9.712;2024-02-21T05:34:35;8.90;99.90
85706;DHT22;76142;52.376;9.712;2024-02-21T05:37:01;9.00;99.90
85706;DHT22;76142;52.376;9.712;2024-02-21T05:39:26;9.00;99.90
85706;DHT22;76142;52.376;9.712;2024-02-21T05:41:52;9.00;99.90
85706;DHT22;76142;52.376;9.712;2024-02-21T05:44:18;9.00;99.90
85706;DHT22;76142;52.376;9.712;2024-02-21T05:46:44;9.00;99.90
85706;DHT22;76142;52.376;9.712;2024-02-21T05:49:10;8.90;99.90
85706;DHT22;76142;52.376;9.712;2024-02-21T05:51:36;9.00;99.90
85706;DHT22;76142;52.376;9.712;2024-02-21T05:54:02;8.90;99.90
85706;DHT22;76142;52.376;9.712;2024-02-21T05:56:27;9.00;99.90
85706;DHT22;76142;52.376;9.712;2024-02-21T05:58:53;9.00;99.90
85706;DHT22;76142;52.376;9.712;2024-02-21T06:01:19;9.00;99.90
85706;DHT22;76142;52.376;9.712;2024-02-21T06:03:47;8.90;99.90
85706;DHT22;76142;52.376;9.712;2024-02-21T06:06:12;8.90;99.90
85706;DHT22;76142;52.376;9.712;2024-02-21T06:08:40;8.90;99.90
85706;DHT22;76142;52.376;9.712;2024-02-21T06:11:05;8.90;99.90
85706;DHT22;76142;52.376;9.712;2024-02-21T06:13:31;8.90;99.90
85706;DHT22;76142;52.376;9.712;2024-02-21T06:15:56;8.90;99.90
85706;DHT22;76142;52.376;9.712;2024-02-21T06:18:22;8.90;99.90
85706;DHT22;76142;52.376;9.712;2024-02-21T06:20:48;8.90;99.90
85706;DHT22;76142;52.376;9.712;2024-02-21T06:23:15;8.90;99.90
85706;DHT22;76142;52.376;9.712;2024-02-21T06:25:42;8.90;99.90
85706;DHT22;76142;52.376;9.712;2024-02-21T06:28:08;8.90;99.90
85706;DHT22;76142;52.376;9.712;2024-02-21T06:30:34;9.00;99.90
85706;DHT22;76142;52.376;9.712;2024-02-21T06:32:59;9.00;99.90
85706;DHT22;76142;52.376;9.712;2024-02-21T06:35:26;9.00;99.90
85706;DHT22;76142;52.376;9.712;2024-02-21T06:37:52;8.90;99.90
85706;DHT22;76142;52.376;9.712;2024-02-21T06:40:20;9.00;99.90
85706;DHT22;76142;52.376;9.712;2024-02-21T06:42:46;8.90;99.90
85706;DHT22;76142;52.376;9.712;2024-02-21T06:45:12;8.90;99.90
85706;DHT22;76142;52.376;9.712;2024-02-21T06:47:37;8.90;99.90
85706;DHT22;76142;52.376;9.712;2024-02-21T06:50:03;8.80;99.90
85706;DHT22;76142;52.376;9.712;2024-02-21T06:52:29;8.80;99.90
85706;DHT22;76142;52.376;9.712;2024-02-21T06:54:55;8.90;99.90
85706;DHT22;76142;52.376;9.712;2024-02-21T06:57:21;8.80;99.90
85706;DHT22;76142;52.376;9.712;2024-02-21T06:59:47;8.80;99.90
85706;DHT22;76142;52.376;9.712;2024-02-21T07:02:12;8.80;99.90
85706;DHT22;76142;52.376;9.712;2024-02-21T07:04:38;8.80;99.90
85706;DHT22;76142;52.376;9.712;2024-02-21T07:07:04;8.80;99.90
85706;DHT22;76142;52.376;9.712;2024-02-21T07:09:29;8.80;99.90
85706;DHT22;76142;52.376;9.712;2024-02-21T07:11:57;8.90;99.90
85706;DHT22;76142;52.376;9.712;2024-02-21T07:14:23;8.80;99.90
85706;DHT22;76142;52.376;9.712;2024-02-21T07:16:49;8.80;99.90
85706;DHT22;76142;52.376;9.712;2024-02-21T07:19:14;8.80;99.90
85706;DHT22;76142;52.376;9.712;2024-02-21T07:21:40;8.90;99.90
85706;DHT22;76142;52.376;9.712;2024-02-21T07:24:08;8.90;99.90
85706;DHT22;76142;52.376;9.712;2024-02-21T07:26:33;8.90;99.90
85706;DHT22;76142;52.376;9.712;2024-02-21T07:28:59;8.90;99.90
85706;DHT22;76142;52.376;9.712;2024-02-21T07:31:25;8.90;99.90
85706;DHT22;76142;52.376;9.712;2024-02-21T07:33:50;8.90;99.90
85706;DHT22;76142;52.376;9.712;2024-02-21T07:36:23;8.90;99.90
85706;DHT22;76142;52.376;9.712;2024-02-21T07:38:49;8.90;99.90
85706;DHT22;76142;52.376;9.712;2024-02-21T07:41:15;8.90;99.90
85706;DHT22;76142;52.376;9.712;2024-02-21T07:43:41;8.90;99.90
85706;DHT22;76142;52.376;9.712;2024-02-21T07:46:07;9.00;99.90
85706;DHT22;76142;52.376;9.712;2024-02-21T07:48:32;9.00;99.90
85706;DHT22;76142;52.376;9.712;2024-02-21T07:50:58;8.90;99.90
85706;DHT22;76142;52.376;9.712;2024-02-21T07:53:23;9.00;99.90
85706;DHT22;76142;52.376;9.712;2024-02-21T07:55:49;9.00;99.90
85706;DHT22;76142;52.376;9.712;2024-02-21T07:58:15;9.00;99.90
85706;DHT22;76142;52.376;9.712;2024-02-21T08:00:40;9.00;99.90
85706;DHT22;76142;52.376;9.712;2024-02-21T08:03:06;9.00;99.90
85706;DHT22;76142;52.376;9.712;2024-02-21T08:05:34;9.00;99.90
85706;DHT22;76142;52.376;9.712;2024-02-21T08:08:00;9.10;99.90
85706;DHT22;76142;52.376;9.712;2024-02-21T08:10:25;9.10;99.90
85706;DHT22;76142;52.376;9.712;2024-02-21T08:12:51;9.20;99.90
85706;DHT22;76142;52.376;9.712;2024-02-21T08:15:17;9.20;99.90
85706;DHT22;76142;52.376;9.712;2024-02-21T08:17:43;9.20;99.90
85706;DHT22;76142;52.376;9.712;2024-02-21T08:20:09;9.20;99.90
85706;DHT22;76142;52.376;9.712;2024-02-21T08:22:37;9.30;99.90
85706;DHT22;76142;52.376;9.712;2024-02-21T08:25:03;9.30;99.90
85706;DHT22;76142;52.376;9.712;2024-02-21T08:27:31;9.30;99.90
85706;DHT22;76142;52.376;9.712;2024-02-21T08:29:56;9.30;99.90
85706;DHT22;76142;52.376;9.712;2024-02-21T08:32:22;9.40;99.90
85706;DHT22;76142;52.376;9.712;2024-02-21T08:34:47;9.40;99.90
85706;DHT22;76142;52.376;9.712;2024-02-21T08:37:13;9.50;99.90
85706;DHT22;76142;52.376;9.712;2024-02-21T08:39:39;9.50;99.90
85706;DHT22;76142;52.376;9.712;2024-02-21T08:42:05;9.50;99.90
85706;DHT22;76142;52.376;9.712;2024-02-21T08:44:30;9.50;99.90
85706;DHT22;76142;52.376;9.712;2024-02-21T08:46:56;9.50;99.90
85706;DHT22;76142;52.376;9.712;2024-02-21T08:49:22;9.60;99.90
85706;DHT22;76142;52.376;9.712;2024-02-21T08:51:48;9.60;99.90
85706;DHT22;76142;52.376;9.712;2024-02-21T08:54:13;9.70;99.90
85706;DHT22;76142;52.376;9.712;2024-02-21T08:56:39;9.70;99.90
85706;DHT22;76142;52.376;9.712;2024-02-21T08:59:05;9.70;99.90
85706;DHT22;76142;52.376;9.712;2024-02-21T09:01:30;9.70;99.90
85706;DHT22;76142;52.376;9.712;2024-02-21T09:03:56;9.70;99.90
85706;DHT22;76142;52.376;9.712;2024-02-21T09:06:22;9.70;99.90
85706;DHT22;76142;52.376;9.712;2024-02-21T09:08:48;9.70;99.90
85706;DHT22;76142;52.376;9.712;2024-02-21T09:11:14;9.80;99.90
85706;DHT22;76142;52.376;9.712;2024-02-21T09:13:40;9.80;99.90
85706;DHT22;76142;52.376;9.712;2024-02-21T09:16:06;10.00;99.90
85706;DHT22;76142;52.376;9.712;2024-02-21T09:18:31;10.00;99.90
85706;DHT22;76142;52.376;9.712;2024-02-21T09:20:57;10.10;96.30
85706;DHT22;76142;52.376;9.712;2024-02-21T09:23:26;10.00;89.80
85706;DHT22;76142;52.376;9.712;2024-02-21T09:25:52;10.10;58.30
85706;DHT22;76142;52.376;9.712;2024-02-21T09:28:17;10.20;48.20
85706;DHT22;76142;52.376;9.712;2024-02-21T09:30:44;10.20;37.80
85706;DHT22;76142;52.376;9.712;2024-02-21T09:33:09;10.30;1.00
85706;DHT22;76142;52.376;9.712;2024-02-21T09:35:35;10.40;1.00
85706;DHT22;76142;52.376;9.712;2024-02-21T09:38:01;10.40;1.00
85706;DHT22;76142;52.376;9.712;2024-02-21T09:40:27;10.40;1.00
85706;DHT22;76142;52.376;9.712;2024-02-21T09:43:03;10.40;1.00
85706;DHT22;76142;52.376;9.712;2024-02-21T09:45:30;10.40;1.00
85706;DHT22;76142;52.376;9.712;2024-02-21T09:50:24;10.40;99.90
85706;DHT22;76142;52.376;9.712;2024-02-21T09:52:54;10.50;99.90
85706;DHT22;76142;52.376;9.712;2024-02-21T09:55:20;10.50;99.90
85706;DHT22;76142;52.376;9.712;2024-02-21T09:57:46;10.60;99.90
85706;DHT22;76142;52.376;9.712;2024-02-21T10:00:14;10.70;99.90
85706;DHT22;76142;52.376;9.712;2024-02-21T10:02:47;10.80;58.80
85706;DHT22;76142;52.376;9.712;2024-02-21T10:05:14;10.70;1.00
85706;DHT22;76142;52.376;9.712;2024-02-21T10:07:39;10.60;1.00
85706;DHT22;76142;52.376;9.712;2024-02-21T10:10:05;10.50;1.00
85706;DHT22;76142;52.376;9.712;2024-02-21T10:12:31;10.50;1.00
85706;DHT22;76142;52.376;9.712;2024-02-21T10:15:04;10.70;1.00
85706;DHT22;76142;52.376;9.712;2024-02-21T10:17:33;10.70;1.00
85706;DHT22;76142;52.376;9.712;2024-02-21T10:20:09;10.60;3.10
85706;DHT22;76142;52.376;9.712;2024-02-21T10:22:35;10.60;1.00
85706;DHT22;76142;52.376;9.712;2024-02-21T10:25:14;10.70;1.00
85706;DHT22;76142;52.376;9.712;2024-02-21T10:27:40;10.70;99.90
85706;DHT22;76142;52.376;9.712;2024-02-21T10:30:12;10.70;99.90
85706;DHT22;76142;52.376;9.712;2024-02-21T10:32:51;10.90;99.90
85706;DHT22;76142;52.376;9.712;2024-02-21T10:35:29;10.90;99.90
85706;DHT22;76142;52.376;9.712;2024-02-21T10:37:55;10.80;99.90
85706;DHT22;76142;52.376;9.712;2024-02-21T10:40:23;10.90;99.90
85706;DHT22;76142;52.376;9.712;2024-02-21T10:42:59;10.90;1.00
85706;DHT22;76142;52.376;9.712;2024-02-21T10:45:30;10.90;1.00
85706;DHT22;76142;52.376;9.712;2024-02-21T10:48:11;10.80;1.00
85706;DHT22;76142;52.376;9.712;2024-02-21T10:53:24;10.90;1.00
85706;DHT22;76142;52.376;9.712;2024-02-21T10:58:53;11.00;1.00
85706;DHT22;76142;52.376;9.712;2024-02-21T11:01:19;10.90;1.00
85706;DHT22;76142;52.376;9.712;2024-02-21T11:03:46;10.90;1.00
85706;DHT22;76142;52.376;9.712;2024-02-21T11:06:14;11.00;1.00
85706;DHT22;76142;52.376;9.712;2024-02-21T11:08:40;11.10;1.00
85706;DHT22;76142;52.376;9.712;2024-02-21T11:11:06;11.10;1.00
85706;DHT22;76142;52.376;9.712;2024-02-21T11:13:35;11.10;1.00
85706;DHT22;76142;52.376;9.712;2024-02-21T11:16:11;11.20;1.00
85706;DHT22;76142;52.376;9.712;2024-02-21T11:18:38;11.20;1.00
85706;DHT22;76142;52.376;9.712;2024-02-21T11:21:03;11.30;1.00
85706;DHT22;76142;52.376;9.712;2024-02-21T11:23:32;11.40;1.00
85706;DHT22;76142;52.376;9.712;2024-02-21T11:26:18;11.30;1.00
85706;DHT22;76142;52.376;9.712;2024-02-21T11:28:44;11.30;1.00
85706;DHT22;76142;52.376;9.712;2024-02-21T11:31:14;11.40;1.00
85706;DHT22;76142;52.376;9.712;2024-02-21T11:33:41;11.50;1.00
85706;DHT22;76142;52.376;9.712;2024-02-21T11:36:08;11.40;1.00
85706;DHT22;76142;52.376;9.712;2024-02-21T11:38:34;11.40;1.00
85706;DHT22;76142;52.376;9.712;2024-02-21T11:40:59;11.50;1.00
85706;DHT22;76142;52.376;9.712;2024-02-21T11:43:25;11.50;1.00
85706;DHT22;76142;52.376;9.712;2024-02-21T11:45:58;11.50;1.00
85706;DHT22;76142;52.376;9.712;2024-02-21T11:48:24;11.40;1.00
85706;DHT22;76142;52.376;9.712;2024-02-21T11:50:54;11.40;1.00
85706;DHT22;76142;52.376;9.712;2024-02-21T11:53:20;11.40;1.00
85706;DHT22;76142;52.376;9.712;2024-02-21T11:55:46;11.40;1.00
85706;DHT22;76142;52.376;9.712;2024-02-21T11:58:12;11.50;1.00
85706;DHT22;76142;52.376;9.712;2024-02-21T12:00:37;11.40;99.90
85706;DHT22;76142;52.376;9.712;2024-02-21T12:03:04;11.50;1.00
85706;DHT22;76142;52.376;9.712;2024-02-21T12:05:30;11.40;99.90
85706;DHT22;76142;52.376;9.712;2024-02-21T12:07:56;11.50;99.90
85706;DHT22;76142;52.376;9.712;2024-02-21T12:10:25;11.70;99.90
85706;DHT22;76142;52.376;9.712;2024-02-21T12:12:51;11.70;99.90
85706;DHT22;76142;52.376;9.712;2024-02-21T12:15:18;11.80;99.90
85706;DHT22;76142;52.376;9.712;2024-02-21T12:17:44;11.90;99.90
85706;DHT22;76142;52.376;9.712;2024-02-21T12:20:10;12.00;99.90
85706;DHT22;76142;52.376;9.712;2024-02-21T12:22:39;11.80;99.90
85706;DHT22;76142;52.376;9.712;2024-02-21T12:25:25;11.90;99.90
85706;DHT22;76142;52.376;9.712;2024-02-21T12:27:54;12.00;99.90
85706;DHT22;76142;52.376;9.712;2024-02-21T12:30:19;12.00;99.90
85706;DHT22;76142;52.376;9.712;2024-02-21T12:32:46;12.00;99.90
85706;DHT22;76142;52.376;9.712;2024-02-21T12:35:12;11.90;99.90
85706;DHT22;76142;52.376;9.712;2024-02-21T12:37:38;11.80;99.90
85706;DHT22;76142;52.376;9.712;2024-02-21T12:40:05;11.90;99.90
85706;DHT22;76142;52.376;9.712;2024-02-21T12:42:35;11.90;99.90
85706;DHT22;76142;52.376;9.712;2024-02-21T12:45:02;11.80;99.90
85706;DHT22;76142;52.376;9.712;2024-02-21T12:47:31;11.90;99.90
85706;DHT22;76142;52.376;9.712;2024-02-21T12:49:57;11.90;99.90
85706;DHT22;76142;52.376;9.712;2024-02-21T12:52:23;12.00;99.90
85706;DHT22;76142;52.376;9.712;2024-02-21T12:54:49;12.00;99.90
85706;DHT22;76142;52.376;9.712;2024-02-21T12:57:16;11.90;99.90
85706;DHT22;76142;52.376;9.712;2024-02-21T12:59:41;11.80;99.90
85706;DHT22;76142;52.376;9.712;2024-02-21T13:02:07;12.00;99.90
85706;DHT22;76142;52.376;9.712;2024-02-21T13:04:34;11.80;99.90
85706;DHT22;76142;52.376;9.712;2024-02-21T13:07:00;11.80;99.90
85706;DHT22;76142;52.376;9.712;2024-02-21T13:09:25;11.80;99.90
85706;DHT22;76142;52.376;9.712;2024-02-21T13:11:51;11.80;99.90
85706;DHT22;76142;52.376;9.712;2024-02-21T13:14:17;11.70;99.90
85706;DHT22;76142;52.376;9.712;2024-02-21T13:16:42;11.70;99.90
85706;DHT22;76142;52.376;9.712;2024-02-21T13:19:08;11.90;99.90
85706;DHT22;76142;52.376;9.712;2024-02-21T13:21:34;11.80;99.90
85706;DHT22;76142;52.376;9.712;2024-02-21T13:24:00;12.00;99.90
85706;DHT22;76142;52.376;9.712;2024-02-21T13:26:26;12.00;99.90
85706;DHT22;76142;52.376;9.712;2024-02-21T13:28:53;12.10;99.90
85706;DHT22;76142;52.376;9.712;2024-02-21T13:31:18;12.20;99.90
85706;DHT22;76142;52.376;9.712;2024-02-21T13:33:44;12.00;99.90
85706;DHT22;76142;52.376;9.712;2024-02-21T13:36:10;11.90;99.90
85706;DHT22;76142;52.376;9.712;2024-02-21T13:38:36;11.90;99.90
85706;DHT22;76142;52.376;9.712;2024-02-21T13:41:01;12.00;99.90
85706;DHT22;76142;52.376;9.712;2024-02-21T13:43:27;11.70;99.90
85706;DHT22;76142;52.376;9.712;2024-02-21T13:45:57;11.80;99.90
85706;DHT22;76142;52.376;9.712;2024-02-21T13:48:23;11.80;99.90
85706;DHT22;76142;52.376;9.712;2024-02-21T13:50:50;11.80;99.90
85706;DHT22;76142;52.376;9.712;2024-02-21T13:53:15;11.70;99.90
85706;DHT22;76142;52.376;9.712;2024-02-21T13:55:44;11.70;99.90
85706;DHT22;76142;52.376;9.712;2024-02-21T13:58:10;11.70;99.90
85706;DHT22;76142;52.376;9.712;2024-02-21T14:00:36;11.70;99.90
85706;DHT22;76142;52.376;9.712;2024-02-21T14:03:02;11.80;99.90
85706;DHT22;76142;52.376;9.712;2024-02-21T14:05:27;11.70;99.90
85706;DHT22;76142;52.376;9.712;2024-02-21T14:07:53;11.70;99.90
85706;DHT22;76142;52.376;9.712;2024-02-21T14:10:20;11.70;99.90
85706;DHT22;76142;52.376;9.712;2024-02-21T14:12:46;11.60;99.90
85706;DHT22;76142;52.376;9.712;2024-02-21T14:15:16;11.50;99.90
85706;DHT22;76142;52.376;9.712;2024-02-21T14:17:42;11.40;99.90
85706;DHT22;76142;52.376;9.712;2024-02-21T14:20:08;11.40;99.90
85706;DHT22;76142;52.376;9.712;2024-02-21T14:22:34;11.40;99.90
85706;DHT22;76142;52.376;9.712;2024-02-21T14:25:00;11.40;99.90
85706;DHT22;76142;52.376;9.712;2024-02-21T14:27:26;11.40;99.90
85706;DHT22;76142;52.376;9.712;2024-02-21T14:29:52;11.40;99.90
85706;DHT22;76142;52.376;9.712;2024-02-21T14:32:18;11.40;99.90
85706;DHT22;76142;52.376;9.712;2024-02-21T14:34:45;11.40;99.90
85706;DHT22;76142;52.376;9.712;2024-02-21T14:37:11;11.40;99.90
85706;DHT22;76142;52.376;9.712;2024-02-21T14:39:37;11.40;99.90
85706;DHT22;76142;52.376;9.712;2024-02-21T14:42:03;11.40;99.90
85706;DHT22;76142;52.376;9.712;2024-02-21T14:44:29;11.40;99.90
85706;DHT22;76142;52.376;9.712;2024-02-21T14:46:54;11.30;99.90
85706;DHT22;76142;52.376;9.712;2024-02-21T14:49:20;11.30;99.90
85706;DHT22;76142;52.376;9.712;2024-02-21T14:51:46;11.30;99.90
85706;DHT22;76142;52.376;9.712;2024-02-21T14:54:12;11.30;99.90
85706;DHT22;76142;52.376;9.712;2024-02-21T14:56:37;11.20;99.90
85706;DHT22;76142;52.376;9.712;2024-02-21T14:59:04;11.20;99.90
85706;DHT22;76142;52.376;9.712;2024-02-21T15:01:36;11.20;99.90
85706;DHT22;76142;52.376;9.712;2024-02-21T15:04:03;11.20;99.90
85706;DHT22;76142;52.376;9.712;2024-02-21T15:06:29;11.10;99.90
85706;DHT22;76142;52.376;9.712;2024-02-21T15:08:57;11.00;99.90
85706;DHT22;76142;52.376;9.712;2024-02-21T15:11:23;11.00;99.90
85706;DHT22;76142;52.376;9.712;2024-02-21T15:13:49;11.00;99.90
85706;DHT22;76142;52.376;9.712;2024-02-21T15:16:14;10.90;99.90
85706;DHT22;76142;52.376;9.712;2024-02-21T15:18:41;10.90;1.00
85706;DHT22;76142;52.376;9.712;2024-02-21T15:21:07;10.90;1.00
85706;DHT22;76142;52.376;9.712;2024-02-21T15:23:36;10.80;1.00
85706;DHT22;76142;52.376;9.712;2024-02-21T15:26:01;10.80;1.00
85706;DHT22;76142;52.376;9.712;2024-02-21T15:28:27;10.80;1.00
85706;DHT22;76142;52.376;9.712;2024-02-21T15:30:54;10.80;1.00
85706;DHT22;76142;52.376;9.712;2024-02-21T15:33:20;10.80;1.00
85706;DHT22;76142;52.376;9.712;2024-02-21T15:35:46;10.70;1.00
85706;DHT22;76142;52.376;9.712;2024-02-21T15:38:13;10.80;1.00
85706;DHT22;76142;52.376;9.712;2024-02-21T15:40:39;10.70;1.00
85706;DHT22;76142;52.376;9.712;2024-02-21T15:43:04;10.70;1.00
85706;DHT22;76142;52.376;9.712;2024-02-21T15:45:30;10.60;1.00